Time;durP1;ratioP1;P1;durP2;ratioP2;P2;SDS_P1;SDS_P2;PMS_P1;PMS_P2;Temp;Humidity;BMP_temperature;BMP_pressure;BME280_temperature;BME280_humidity;BME280_pressure;Samples;Min_cycle;Max_cycle;Signal;HPM_P1;HPM_P2
2023/04/29 00:01:42;;;;;;;3.57;2.20;;;11.90;65.60;;;;;;5051216;28;20210;-69
2023/04/29 00:04:09;;;;;;;3.10;2.20;;;11.90;65.60;;;;;;5040336;28;20229;-69
2023/04/29 00:06:36;;;;;;;3.13;2.20;;;11.80;65.50;;;;;;5048630;28;20194;-68
2023/04/29 00:09:04;;;;;;;4.33;2.90;;;11.80;65.40;;;;;;5047841;28;20202;-68
2023/04/29 00:11:33;;;;;;;3.70;2.73;;;11.80;65.30;;;;;;5047974;28;20624;-68
2023/04/29 00:14:00;;;;;;;4.87;2.60;;;11.80;65.20;;;;;;5047281;28;20198;-69
2023/04/29 00:16:27;;;;;;;3.87;2.70;;;11.80;65.10;;;;;;5050514;28;20194;-69
2023/04/29 00:18:55;;;;;;;4.50;2.43;;;11.80;65.10;;;;;;5054918;28;20684;-68
2023/04/29 00:21:23;;;;;;;4.70;2.43;;;11.80;65.10;;;;;;5051748;28;20227;-68
2023/04/29 00:23:50;;;;;;;4.60;2.90;;;11.80;65.10;;;;;;5051306;28;20198;-68
2023/04/29 00:26:17;;;;;;;2.50;2.30;;;11.80;65.20;;;;;;5053790;28;20198;-70
2023/04/29 00:28:48;;;;;;;4.17;2.20;;;11.80;65.20;;;;;;5046772;28;20196;-68
2023/04/29 00:31:15;;;;;;;2.83;2.17;;;11.80;65.20;;;;;;5051253;28;20209;-69
2023/04/29 00:33:43;;;;;;;3.63;2.30;;;11.80;65.00;;;;;;5049184;28;20263;-68
2023/04/29 00:36:10;;;;;;;9.33;2.87;;;11.70;65.00;;;;;;5053381;28;20205;-68
2023/04/29 00:38:37;;;;;;;3.63;2.33;;;11.70;64.90;;;;;;5050147;28;20312;-68
2023/04/29 00:41:04;;;;;;;2.43;2.00;;;11.70;64.90;;;;;;5048932;28;20186;-68
2023/04/29 00:43:31;;;;;;;4.03;2.20;;;11.70;65.00;;;;;;5058855;28;20189;-67
2023/04/29 00:46:00;;;;;;;2.27;2.03;;;11.70;65.00;;;;;;5050623;28;20204;-68
2023/04/29 00:48:27;;;;;;;3.43;2.50;;;11.70;64.90;;;;;;5049309;28;20198;-68
2023/04/29 00:50:55;;;;;;;2.77;2.10;;;11.70;64.90;;;;;;5048253;28;20314;-68
2023/04/29 00:53:23;;;;;;;4.07;2.30;;;11.70;64.90;;;;;;5044373;28;20194;-68
2023/04/29 00:55:51;;;;;;;4.47;2.43;;;11.60;64.80;;;;;;5048677;28;20261;-68
2023/04/29 00:58:19;;;;;;;2.27;2.07;;;11.60;64.70;;;;;;5048094;28;20225;-68
2023/04/29 01:00:48;;;;;;;3.03;2.10;;;11.60;64.70;;;;;;5050081;28;20206;-68
2023/04/29 01:03:17;;;;;;;2.17;1.97;;;11.60;64.60;;;;;;5048121;28;20683;-68
2023/04/29 01:05:53;;;;;;;3.83;2.70;;;11.60;64.60;;;;;;5012887;28;1133648;-69
2023/04/29 01:08:33;;;;;;;2.73;2.10;;;11.60;64.40;;;;;;5057935;28;20597;-68
2023/04/29 01:11:06;;;;;;;2.50;2.30;;;11.50;64.40;;;;;;5047006;28;20203;-68
2023/04/29 01:13:42;;;;;;;2.73;2.07;;;11.50;64.50;;;;;;5047999;28;20690;-68
2023/04/29 01:16:13;;;;;;;2.00;1.80;;;11.50;64.50;;;;;;5049872;28;20194;-68
2023/04/29 01:18:46;;;;;;;2.23;1.80;;;11.50;64.50;;;;;;5049462;28;20291;-68
2023/04/29 01:21:17;;;;;;;2.40;2.20;;;11.50;64.50;;;;;;5049828;28;20198;-67
2023/04/29 01:23:46;;;;;;;2.20;1.87;;;11.50;64.50;;;;;;5048340;28;20198;-67
2023/04/29 01:26:14;;;;;;;2.10;1.90;;;11.40;64.50;;;;;;5043298;28;20266;-69
2023/04/29 01:29:17;;;;;;;4.17;2.00;;;11.40;64.70;;;;;;5044117;28;20283;-68
2023/04/29 01:31:51;;;;;;;4.03;2.30;;;11.30;64.80;;;;;;5050917;28;20190;-68
2023/04/29 01:34:23;;;;;;;2.73;2.00;;;11.20;64.90;;;;;;5054304;28;20208;-69
2023/04/29 01:36:59;;;;;;;2.13;1.93;;;11.20;65.00;;;;;;5050160;28;20282;-69
2023/04/29 01:39:37;;;;;;;2.10;1.90;;;11.30;65.00;;;;;;5043451;28;20209;-69
2023/04/29 01:42:19;;;;;;;4.40;2.00;;;11.30;65.00;;;;;;5047267;28;20352;-69
2023/04/29 01:44:49;;;;;;;3.70;1.60;;;11.30;64.90;;;;;;5047091;28;20197;-69
2023/04/29 01:47:20;;;;;;;2.87;1.80;;;11.40;65.00;;;;;;5050914;28;20296;-67
2023/04/29 01:49:51;;;;;;;4.50;2.13;;;11.40;65.00;;;;;;5049243;28;20297;-68
2023/04/29 01:52:18;;;;;;;2.53;2.20;;;11.40;64.90;;;;;;5049541;28;20293;-68
2023/04/29 01:54:54;;;;;;;2.83;1.70;;;11.50;64.90;;;;;;5049349;28;20653;-68
2023/04/29 01:57:21;;;;;;;1.73;1.53;;;11.40;64.60;;;;;;5050581;28;20192;-68
2023/04/29 02:00:14;;;;;;;1.73;1.47;;;11.40;64.70;;;;;;5032748;28;20222;-68
2023/04/29 02:02:46;;;;;;;1.60;1.50;;;11.20;64.40;;;;;;5048701;28;20276;-66
2023/04/29 02:05:38;;;;;;;1.67;1.57;;;11.30;64.60;;;;;;5048361;28;20260;-68
2023/04/29 02:08:07;;;;;;;1.37;1.27;;;11.30;64.60;;;;;;5048417;28;20219;-67
2023/04/29 02:10:40;;;;;;;1.97;1.47;;;11.30;64.50;;;;;;5048738;28;20198;-69
2023/04/29 02:13:29;;;;;;;2.00;1.80;;;11.40;64.50;;;;;;5046823;28;20237;-67
2023/04/29 02:15:56;;;;;;;1.53;1.43;;;11.40;64.50;;;;;;5062649;28;20215;-68
2023/04/29 02:18:23;;;;;;;1.30;1.17;;;11.40;64.40;;;;;;5050167;28;20216;-67
2023/04/29 02:20:51;;;;;;;3.83;1.63;;;11.40;64.40;;;;;;5048734;28;20327;-68
2023/04/29 02:23:18;;;;;;;1.33;1.23;;;11.30;64.40;;;;;;5049248;28;20266;-66
2023/04/29 02:25:46;;;;;;;1.97;1.77;;;11.30;64.40;;;;;;5046405;28;20206;-67
2023/04/29 02:28:13;;;;;;;1.20;1.20;;;11.30;64.40;;;;;;5048573;28;20694;-68
2023/04/29 02:30:44;;;;;;;1.60;1.50;;;11.30;64.30;;;;;;5047446;28;20205;-69
2023/04/29 02:33:11;;;;;;;1.50;1.40;;;11.40;64.40;;;;;;5049440;28;20194;-68
2023/04/29 02:35:38;;;;;;;1.93;1.50;;;11.30;64.30;;;;;;5056782;28;20199;-69
2023/04/29 02:38:06;;;;;;;1.47;1.20;;;11.40;64.40;;;;;;5052983;28;20284;-68
2023/04/29 02:40:33;;;;;;;2.27;1.60;;;11.40;64.50;;;;;;5049753;28;20606;-68
2023/04/29 02:43:01;;;;;;;1.73;1.60;;;11.40;64.50;;;;;;5047198;28;20205;-68
2023/04/29 02:45:29;;;;;;;2.23;1.63;;;11.40;64.50;;;;;;5047275;28;20280;-69
2023/04/29 02:47:56;;;;;;;1.90;1.57;;;11.40;64.60;;;;;;5050068;28;20197;-68
2023/04/29 02:50:24;;;;;;;2.40;1.57;;;11.40;64.80;;;;;;5049535;28;20687;-68
2023/04/29 02:52:51;;;;;;;1.67;1.50;;;11.40;64.80;;;;;;5047701;28;20263;-68
2023/04/29 02:55:18;;;;;;;1.93;1.77;;;11.40;64.70;;;;;;5048452;28;20213;-68
2023/04/29 02:57:46;;;;;;;3.87;1.93;;;11.50;64.80;;;;;;5049053;28;20205;-68
2023/04/29 03:00:15;;;;;;;2.53;1.80;;;11.50;64.80;;;;;;5046564;28;20679;-68
2023/04/29 03:02:42;;;;;;;2.33;1.53;;;11.50;64.60;;;;;;5046963;28;20210;-69
2023/04/29 03:05:09;;;;;;;2.40;1.70;;;11.50;64.60;;;;;;5058787;28;20304;-68
2023/04/29 03:07:37;;;;;;;2.07;1.87;;;11.50;64.60;;;;;;5048708;28;20217;-68
2023/04/29 03:10:05;;;;;;;6.20;2.20;;;11.50;64.60;;;;;;5047642;28;20198;-68
2023/04/29 03:12:33;;;;;;;2.67;1.77;;;11.40;64.50;;;;;;5047715;28;20202;-68
2023/04/29 03:15:02;;;;;;;2.13;1.70;;;11.40;64.60;;;;;;5055766;28;20248;-68
2023/04/29 03:17:31;;;;;;;2.57;2.07;;;11.50;64.70;;;;;;5047003;28;20205;-68
2023/04/29 03:19:58;;;;;;;2.40;1.70;;;11.50;64.70;;;;;;5049105;28;20206;-69
2023/04/29 03:22:25;;;;;;;2.27;2.03;;;11.40;64.60;;;;;;5047086;28;20215;-69
2023/04/29 03:24:52;;;;;;;2.10;1.90;;;11.50;64.70;;;;;;5047426;28;20610;-69
2023/04/29 03:27:21;;;;;;;2.53;2.00;;;11.40;64.50;;;;;;5046868;28;20236;-68
2023/04/29 03:29:48;;;;;;;2.47;2.27;;;11.40;64.50;;;;;;5054299;28;20202;-69
2023/04/29 03:32:16;;;;;;;2.27;1.90;;;11.40;64.50;;;;;;5047216;28;20213;-69
2023/04/29 03:34:48;;;;;;;2.67;2.30;;;11.40;64.40;;;;;;5052198;28;20378;-69
2023/04/29 03:37:44;;;;;;;2.50;2.20;;;11.50;64.50;;;;;;5008698;28;20658;-68
2023/04/29 03:40:21;;;;;;;2.27;1.80;;;11.40;64.40;;;;;;5050314;28;20298;-68
2023/04/29 03:42:49;;;;;;;3.03;2.13;;;11.40;64.40;;;;;;5047068;28;20206;-68
2023/04/29 03:45:17;;;;;;;3.30;1.80;;;11.40;64.40;;;;;;5046371;28;20614;-68
2023/04/29 03:47:45;;;;;;;1.70;1.60;;;11.40;64.50;;;;;;5049586;28;20215;-68
2023/04/29 03:50:13;;;;;;;2.23;2.00;;;11.50;64.60;;;;;;5049088;28;20732;-69
2023/04/29 03:52:41;;;;;;;1.97;1.80;;;11.50;64.60;;;;;;5047037;28;20225;-68
2023/04/29 03:55:14;;;;;;;1.80;1.70;;;11.50;64.60;;;;;;5047760;28;20208;-69
2023/04/29 03:57:43;;;;;;;2.57;1.80;;;11.50;64.60;;;;;;5046624;28;20258;-69
2023/04/29 04:00:12;;;;;;;2.20;1.77;;;11.50;64.40;;;;;;5054317;28;20235;-69
2023/04/29 04:02:50;;;;;;;1.60;1.50;;;11.50;64.30;;;;;;5049931;28;20200;-68
2023/04/29 04:05:19;;;;;;;2.10;1.60;;;11.40;64.30;;;;;;5063303;28;20252;-68
2023/04/29 04:07:51;;;;;;;1.97;1.60;;;11.40;64.30;;;;;;5055298;28;20307;-67
2023/04/29 04:10:36;;;;;;;1.80;1.70;;;11.40;64.30;;;;;;5055768;28;20324;-68
2023/04/29 04:13:10;;;;;;;1.90;1.50;;;11.30;64.10;;;;;;5050205;28;20208;-67
2023/04/29 04:15:37;;;;;;;1.90;1.80;;;11.30;64.00;;;;;;5060286;28;20212;-68
2023/04/29 04:18:05;;;;;;;1.90;1.70;;;11.30;63.90;;;;;;5050831;28;20288;-68
2023/04/29 04:20:33;;;;;;;1.73;1.63;;;11.30;63.90;;;;;;5050553;28;20220;-68
2023/04/29 04:23:00;;;;;;;2.77;1.60;;;11.30;63.90;;;;;;5073892;28;20198;-68
2023/04/29 04:25:30;;;;;;;2.50;1.73;;;11.30;63.90;;;;;;5049045;28;20695;-67
2023/04/29 04:28:07;;;;;;;2.27;2.07;;;11.30;63.90;;;;;;5050725;28;20209;-67
2023/04/29 04:30:54;;;;;;;1.77;1.67;;;11.30;63.90;;;;;;5050813;28;20560;-67
2023/04/29 04:33:21;;;;;;;4.23;2.33;;;11.30;63.80;;;;;;5049444;28;20202;-67
2023/04/29 04:35:50;;;;;;;4.93;2.00;;;11.30;63.60;;;;;;5050626;28;20198;-68
2023/04/29 04:38:18;;;;;;;2.40;2.13;;;11.30;63.50;;;;;;5049510;28;20205;-68
2023/04/29 04:40:45;;;;;;;2.87;2.53;;;11.30;63.50;;;;;;5051958;28;20791;-68
2023/04/29 04:43:33;;;;;;;4.43;2.70;;;11.30;63.40;;;;;;5047525;28;20404;-68
2023/04/29 04:46:01;;;;;;;3.10;2.50;;;11.40;63.40;;;;;;5049719;28;20210;-68
2023/04/29 04:48:28;;;;;;;4.90;2.67;;;11.40;63.40;;;;;;5049801;28;20288;-68
2023/04/29 04:50:59;;;;;;;3.10;2.80;;;11.40;63.40;;;;;;5050236;28;20200;-68
2023/04/29 04:53:26;;;;;;;2.70;2.27;;;11.40;63.40;;;;;;5049123;28;20246;-67
2023/04/29 04:56:01;;;;;;;2.10;1.90;;;11.40;63.30;;;;;;5049980;28;20302;-67
2023/04/29 04:58:30;;;;;;;3.53;2.20;;;11.40;63.40;;;;;;5049033;28;20200;-67
2023/04/29 05:00:57;;;;;;;2.73;2.43;;;11.50;63.60;;;;;;5051621;28;21502;-67
2023/04/29 05:03:25;;;;;;;2.63;2.30;;;11.50;63.60;;;;;;5040849;28;20203;-67
2023/04/29 05:05:56;;;;;;;2.43;2.23;;;11.50;63.60;;;;;;5047806;28;20205;-67
2023/04/29 05:08:25;;;;;;;2.97;2.30;;;11.50;63.60;;;;;;5049076;28;20217;-67
2023/04/29 05:10:56;;;;;;;4.53;2.60;;;11.50;63.60;;;;;;5049686;28;20227;-68
2023/04/29 05:13:24;;;;;;;2.80;2.50;;;11.60;63.80;;;;;;5046564;28;20206;-66
2023/04/29 05:15:51;;;;;;;2.93;2.13;;;11.60;63.80;;;;;;5049384;28;20725;-66
2023/04/29 05:18:23;;;;;;;2.37;2.17;;;11.50;63.80;;;;;;5049229;28;20228;-67
2023/04/29 05:20:52;;;;;;;2.47;2.27;;;11.50;63.90;;;;;;5049745;28;20224;-68
2023/04/29 05:23:19;;;;;;;2.23;2.00;;;11.50;63.90;;;;;;5049559;28;20186;-67
2023/04/29 05:25:48;;;;;;;5.33;2.93;;;11.60;64.10;;;;;;5060025;28;20283;-68
2023/04/29 05:28:17;;;;;;;4.17;2.80;;;11.60;64.20;;;;;;5047821;28;20243;-68
2023/04/29 05:30:45;;;;;;;4.23;2.90;;;11.60;64.30;;;;;;5049246;28;20209;-68
2023/04/29 05:33:13;;;;;;;3.23;2.53;;;11.60;64.30;;;;;;5048854;28;20202;-67
2023/04/29 05:35:40;;;;;;;3.93;2.37;;;11.60;64.30;;;;;;5049679;28;20236;-66
2023/04/29 05:38:07;;;;;;;3.17;2.30;;;11.70;64.40;;;;;;5048597;28;20370;-68
2023/04/29 05:40:37;;;;;;;4.07;2.80;;;11.70;64.50;;;;;;5051771;28;20214;-67
2023/04/29 05:43:32;;;;;;;3.53;2.50;;;11.70;64.60;;;;;;5025152;28;20270;-68
2023/04/29 05:46:00;;;;;;;2.27;2.07;;;11.70;64.50;;;;;;5053283;28;20541;-68
2023/04/29 05:48:28;;;;;;;5.67;3.20;;;11.70;64.70;;;;;;5048709;28;20198;-68
2023/04/29 05:50:55;;;;;;;2.47;2.27;;;11.80;64.90;;;;;;5050851;28;20204;-67
2023/04/29 05:53:22;;;;;;;3.40;2.50;;;11.80;64.90;;;;;;5048323;28;20212;-67
2023/04/29 05:55:50;;;;;;;4.67;2.90;;;11.80;65.00;;;;;;5049082;28;20691;-68
2023/04/29 05:58:17;;;;;;;4.27;2.80;;;11.80;65.20;;;;;;5048471;28;20186;-67
2023/04/29 06:00:48;;;;;;;5.63;3.03;;;11.80;65.30;;;;;;5047943;28;20248;-67
2023/04/29 06:03:20;;;;;;;3.83;2.60;;;11.90;65.30;;;;;;5049667;28;20209;-68
2023/04/29 06:05:51;;;;;;;4.00;3.37;;;11.90;65.30;;;;;;5012432;28;20205;-67
2023/04/29 06:08:36;;;;;;;5.00;2.50;;;11.80;65.20;;;;;;5029660;28;20228;-67
2023/04/29 06:11:21;;;;;;;4.20;2.80;;;11.80;65.40;;;;;;5003419;28;20686;-67
2023/04/29 06:13:48;;;;;;;3.93;2.77;;;11.80;65.50;;;;;;5027777;28;20199;-67
2023/04/29 06:16:17;;;;;;;3.53;2.97;;;11.90;65.80;;;;;;5012763;28;20200;-67
2023/04/29 06:18:44;;;;;;;3.60;2.43;;;11.90;65.90;;;;;;5011864;28;20205;-68
2023/04/29 06:21:15;;;;;;;3.10;2.80;;;12.00;65.90;;;;;;5012156;28;20214;-67
2023/04/29 06:23:44;;;;;;;5.23;2.83;;;12.00;65.90;;;;;;5010742;28;20510;-69
2023/04/29 06:26:17;;;;;;;4.00;3.00;;;12.00;66.00;;;;;;5004794;28;20294;-67
2023/04/29 06:28:45;;;;;;;4.07;3.27;;;12.10;66.10;;;;;;5008541;28;20687;-68
2023/04/29 06:31:13;;;;;;;2.83;2.60;;;12.10;66.20;;;;;;5007333;28;20480;-66
2023/04/29 06:33:43;;;;;;;3.07;2.73;;;12.20;66.30;;;;;;5011810;28;20289;-66
2023/04/29 06:36:10;;;;;;;4.27;3.20;;;12.20;66.20;;;;;;5009278;28;20764;-69
2023/04/29 06:39:10;;;;;;;3.43;2.90;;;12.20;66.20;;;;;;4973338;28;20213;-69
2023/04/29 06:41:50;;;;;;;3.70;2.70;;;12.30;66.40;;;;;;5011483;28;20208;-66
2023/04/29 06:44:47;;;;;;;4.87;3.60;;;12.40;66.40;;;;;;5009949;28;20198;-67
2023/04/29 06:47:40;;;;;;;4.87;3.47;;;12.40;66.50;;;;;;5022552;28;20316;-67
2023/04/29 06:50:13;;;;;;;4.17;3.10;;;12.40;66.50;;;;;;5004570;28;20202;-67
2023/04/29 06:52:40;;;;;;;3.47;3.13;;;12.50;66.70;;;;;;5028788;28;20198;-67
2023/04/29 06:55:08;;;;;;;3.80;3.20;;;12.50;66.70;;;;;;5029797;28;20225;-68
2023/04/29 06:57:35;;;;;;;5.13;3.70;;;12.60;66.70;;;;;;5012076;28;20210;-67
2023/04/29 07:00:03;;;;;;;3.47;3.17;;;12.60;66.80;;;;;;5026754;28;20218;-67
2023/04/29 07:02:31;;;;;;;4.17;3.23;;;12.70;66.90;;;;;;5028543;28;20274;-68
2023/04/29 07:04:59;;;;;;;5.17;3.50;;;12.70;67.10;;;;;;5040305;28;20233;-67
2023/04/29 07:07:27;;;;;;;5.37;3.77;;;12.80;67.20;;;;;;5046235;28;20284;-68
2023/04/29 07:09:55;;;;;;;5.27;3.40;;;12.80;67.30;;;;;;5047538;28;20197;-67
2023/04/29 07:12:22;;;;;;;7.90;4.27;;;12.90;67.40;;;;;;5049015;28;20206;-69
2023/04/29 07:14:53;;;;;;;4.20;3.80;;;13.00;67.60;;;;;;5046211;28;20304;-68
2023/04/29 07:17:20;;;;;;;8.00;4.70;;;13.10;67.70;;;;;;5054561;28;20213;-69
2023/04/29 07:19:47;;;;;;;4.10;3.07;;;13.10;68.00;;;;;;5053959;28;20201;-67
2023/04/29 07:22:14;;;;;;;4.40;3.67;;;13.20;68.20;;;;;;5053563;28;20201;-67
2023/04/29 07:24:43;;;;;;;3.73;3.33;;;13.30;68.40;;;;;;5048265;28;20218;-66
2023/04/29 07:27:10;;;;;;;6.03;3.27;;;13.30;68.40;;;;;;5049673;28;20286;-66
2023/04/29 07:29:39;;;;;;;3.43;3.17;;;13.40;68.50;;;;;;5046234;28;20194;-67
2023/04/29 07:32:06;;;;;;;5.27;3.70;;;13.50;68.60;;;;;;5052500;28;20618;-68
2023/04/29 07:34:36;;;;;;;4.63;3.40;;;13.50;68.80;;;;;;5047024;28;20608;-67
2023/04/29 07:37:03;;;;;;;3.47;3.17;;;13.60;68.90;;;;;;5051482;28;20726;-67
2023/04/29 07:39:30;;;;;;;3.30;2.90;;;13.70;68.90;;;;;;5052459;28;20211;-67
2023/04/29 07:42:00;;;;;;;3.40;3.00;;;13.70;68.90;;;;;;5049286;28;20223;-66
2023/04/29 07:44:27;;;;;;;4.67;4.00;;;13.80;69.10;;;;;;5049633;28;20221;-67
2023/04/29 07:46:54;;;;;;;6.03;4.10;;;13.80;69.20;;;;;;5052409;28;20211;-68
2023/04/29 07:49:22;;;;;;;8.50;5.57;;;14.00;69.40;;;;;;5050750;28;20307;-68
2023/04/29 07:51:49;;;;;;;8.23;5.63;;;14.00;69.20;;;;;;5050869;28;20218;-68
2023/04/29 07:54:17;;;;;;;7.87;5.30;;;14.10;69.00;;;;;;5052029;28;20203;-67
2023/04/29 07:56:44;;;;;;;10.33;5.17;;;14.20;68.90;;;;;;5057374;28;20673;-67
2023/04/29 07:59:13;;;;;;;4.27;3.73;;;14.20;68.80;;;;;;5068613;28;20256;-67
2023/04/29 08:01:41;;;;;;;6.47;5.00;;;14.30;68.80;;;;;;5049982;28;20533;-67
2023/04/29 08:04:08;;;;;;;9.50;6.17;;;14.40;68.80;;;;;;5043850;28;20238;-69
2023/04/29 08:06:44;;;;;;;9.90;5.93;;;14.40;68.40;;;;;;5055347;28;20601;-68
2023/04/29 08:09:12;;;;;;;9.43;5.93;;;14.40;68.10;;;;;;5065334;28;20287;-67
2023/04/29 08:11:43;;;;;;;9.87;6.10;;;14.50;68.40;;;;;;5057006;28;20195;-67
2023/04/29 08:14:14;;;;;;;6.87;5.03;;;14.50;68.60;;;;;;5049244;28;20232;-68
2023/04/29 08:16:42;;;;;;;7.40;5.40;;;14.60;68.80;;;;;;5051775;28;20195;-67
2023/04/29 08:19:09;;;;;;;6.97;5.03;;;14.70;69.00;;;;;;5050567;28;20197;-67
2023/04/29 08:21:36;;;;;;;8.40;4.77;;;14.80;69.10;;;;;;5050336;28;20233;-67
2023/04/29 08:24:04;;;;;;;4.67;4.17;;;15.00;69.10;;;;;;5053364;28;20204;-68
2023/04/29 08:26:31;;;;;;;4.03;3.63;;;15.00;69.00;;;;;;5058513;28;20199;-67
2023/04/29 08:28:58;;;;;;;4.97;3.73;;;15.10;69.00;;;;;;5048313;28;20198;-66
2023/04/29 08:31:27;;;;;;;6.17;4.10;;;15.20;69.00;;;;;;5051838;28;20279;-68
2023/04/29 08:33:54;;;;;;;3.57;3.23;;;15.30;69.10;;;;;;5051944;28;20226;-68
2023/04/29 08:36:22;;;;;;;5.63;3.33;;;15.40;69.00;;;;;;5051887;28;20228;-68
2023/04/29 08:38:51;;;;;;;4.50;3.60;;;15.40;68.80;;;;;;5057043;28;20197;-67
2023/04/29 08:41:18;;;;;;;7.33;4.77;;;15.50;68.80;;;;;;5049955;28;20228;-68
2023/04/29 08:43:45;;;;;;;6.70;4.37;;;15.60;68.70;;;;;;5049608;28;20196;-69
2023/04/29 08:46:13;;;;;;;5.63;4.33;;;15.60;68.70;;;;;;5052001;28;20346;-68
2023/04/29 08:48:42;;;;;;;7.30;5.30;;;15.80;68.80;;;;;;5051264;28;20289;-68
2023/04/29 08:51:12;;;;;;;8.33;5.93;;;15.90;68.60;;;;;;5050646;28;20198;-67
2023/04/29 08:53:39;;;;;;;10.20;6.27;;;16.10;68.50;;;;;;5049663;28;20345;-67
2023/04/29 08:56:13;;;;;;;7.70;6.00;;;16.20;68.40;;;;;;5052004;28;20278;-68
2023/04/29 08:58:44;;;;;;;8.13;5.77;;;16.20;68.40;;;;;;5047443;28;20744;-68
2023/04/29 09:01:11;;;;;;;7.53;5.87;;;16.30;68.50;;;;;;5046899;28;20242;-68
2023/04/29 09:03:48;;;;;;;12.67;6.67;;;16.40;68.50;;;;;;5045083;28;20280;-68
2023/04/29 09:06:16;;;;;;;6.63;5.37;;;16.40;68.40;;;;;;5049517;28;20200;-68
2023/04/29 09:08:43;;;;;;;6.40;4.73;;;16.40;68.40;;;;;;5047810;28;20691;-68
2023/04/29 09:11:11;;;;;;;9.37;6.07;;;16.40;68.40;;;;;;5049154;28;20212;-68
2023/04/29 09:13:39;;;;;;;9.47;5.47;;;16.40;68.40;;;;;;5057475;28;20528;-68
2023/04/29 09:16:11;;;;;;;11.20;5.90;;;16.50;68.50;;;;;;5042776;28;20261;-68
2023/04/29 09:18:44;;;;;;;7.60;4.70;;;16.50;68.30;;;;;;5050665;28;20194;-69
2023/04/29 09:21:16;;;;;;;5.30;4.07;;;16.50;68.40;;;;;;5041226;28;20244;-68
2023/04/29 09:23:44;;;;;;;9.37;6.03;;;16.60;68.60;;;;;;5050189;28;20205;-69
2023/04/29 09:26:11;;;;;;;8.37;5.93;;;16.70;68.80;;;;;;5049196;28;20539;-69
2023/04/29 09:28:42;;;;;;;14.20;7.57;;;16.70;69.00;;;;;;5047237;28;20194;-68
2023/04/29 09:31:10;;;;;;;13.53;6.50;;;16.80;69.20;;;;;;5042116;28;20190;-68
2023/04/29 09:33:55;;;;;;;8.47;5.60;;;16.90;69.30;;;;;;5049819;28;20201;-69
2023/04/29 09:36:44;;;;;;;9.63;6.43;;;17.00;69.20;;;;;;5043409;28;20684;-69
2023/04/29 09:39:12;;;;;;;8.90;5.83;;;17.10;68.90;;;;;;5053700;28;20355;-69
2023/04/29 09:41:43;;;;;;;11.40;6.43;;;17.10;68.80;;;;;;5052169;28;20245;-69
2023/04/29 09:44:11;;;;;;;8.90;5.50;;;17.20;68.80;;;;;;5055262;28;20533;-69
2023/04/29 09:46:38;;;;;;;8.80;6.13;;;17.20;68.70;;;;;;5051164;28;20201;-69
2023/04/29 09:49:23;;;;;;;8.93;6.03;;;17.20;68.90;;;;;;5051085;28;20729;-69
2023/04/29 09:51:55;;;;;;;10.93;6.77;;;17.20;68.80;;;;;;5041159;28;20189;-69
2023/04/29 09:54:23;;;;;;;8.47;6.10;;;17.30;68.90;;;;;;5048003;28;20271;-68
2023/04/29 09:56:52;;;;;;;11.20;6.67;;;17.30;68.70;;;;;;5049867;28;20202;-69
2023/04/29 09:59:20;;;;;;;11.00;6.73;;;17.40;68.60;;;;;;5046808;28;20209;-70
2023/04/29 10:01:49;;;;;;;10.40;6.00;;;17.30;68.40;;;;;;5049651;28;20232;-69
2023/04/29 10:04:19;;;;;;;6.97;5.63;;;17.20;68.10;;;;;;5049175;28;20308;-69
2023/04/29 10:06:49;;;;;;;8.87;6.20;;;17.20;68.40;;;;;;5047080;28;20425;-69
2023/04/29 10:09:17;;;;;;;7.13;5.63;;;17.30;68.50;;;;;;5055759;28;20219;-68
2023/04/29 10:11:45;;;;;;;9.50;6.27;;;17.30;68.70;;;;;;5048498;28;20228;-69
2023/04/29 10:14:15;;;;;;;5.77;4.53;;;17.20;68.70;;;;;;5050635;28;20198;-69
2023/04/29 10:16:47;;;;;;;8.83;6.33;;;17.10;68.80;;;;;;5045722;28;20296;-69
2023/04/29 10:19:25;;;;;;;10.00;6.30;;;17.00;69.10;;;;;;5045344;28;20323;-69
2023/04/29 10:21:58;;;;;;;11.07;6.80;;;17.00;69.30;;;;;;5054068;28;20297;-69
2023/04/29 10:24:26;;;;;;;9.67;6.60;;;17.00;69.40;;;;;;5047889;28;20251;-69
2023/04/29 10:26:57;;;;;;;7.67;4.90;;;17.00;69.50;;;;;;5049434;28;20214;-68
2023/04/29 10:29:27;;;;;;;8.07;5.80;;;17.00;69.60;;;;;;5060317;28;20259;-68
2023/04/29 10:31:55;;;;;;;9.60;6.10;;;17.00;69.70;;;;;;5051529;28;20200;-69
2023/04/29 10:34:24;;;;;;;9.27;7.00;;;17.10;69.80;;;;;;5049258;28;20198;-68
2023/04/29 10:36:52;;;;;;;11.53;6.80;;;17.10;69.80;;;;;;5046683;28;20209;-68
2023/04/29 10:39:31;;;;;;;11.07;6.73;;;17.10;69.90;;;;;;5048503;28;20198;-68
2023/04/29 10:41:58;;;;;;;7.10;4.97;;;17.10;70.00;;;;;;5048849;28;20205;-67
2023/04/29 10:44:25;;;;;;;5.67;4.80;;;17.20;70.10;;;;;;5061671;28;20213;-68
2023/04/29 10:47:19;;;;;;;5.20;4.33;;;17.30;70.20;;;;;;5064190;28;20712;-67
2023/04/29 10:50:03;;;;;;;10.30;6.27;;;17.40;70.20;;;;;;5048789;28;20233;-68
2023/04/29 10:52:30;;;;;;;7.43;5.80;;;17.40;70.90;;;;;;5049154;28;20198;-68
2023/04/29 10:55:06;;;;;;;5.97;5.00;;;17.40;70.40;;;;;;5049119;28;20190;-68
2023/04/29 10:57:33;;;;;;;7.27;5.37;;;17.40;70.40;;;;;;5055446;28;20588;-68
2023/04/29 11:00:00;;;;;;;8.50;5.70;;;17.40;70.40;;;;;;5050390;28;20205;-68
2023/04/29 11:02:27;;;;;;;8.43;4.63;;;17.30;70.50;;;;;;5052477;28;20754;-68
2023/04/29 11:05:11;;;;;;;4.47;3.97;;;17.30;70.60;;;;;;5046493;28;20320;-68
2023/04/29 11:07:38;;;;;;;6.57;4.73;;;17.10;70.60;;;;;;5046321;28;20190;-68
2023/04/29 11:10:08;;;;;;;5.87;4.80;;;17.10;70.90;;;;;;5050889;28;20202;-68
2023/04/29 11:12:35;;;;;;;10.47;6.07;;;17.10;71.40;;;;;;5053401;28;20209;-68
2023/04/29 11:15:03;;;;;;;7.50;5.97;;;17.10;71.50;;;;;;5049757;28;20750;-68
2023/04/29 11:17:36;;;;;;;7.70;5.57;;;17.10;71.60;;;;;;5045259;28;20558;-68
2023/04/29 11:20:03;;;;;;;8.87;5.03;;;17.00;71.50;;;;;;5060749;28;20204;-68
2023/04/29 11:22:32;;;;;;;4.93;4.07;;;17.10;71.70;;;;;;5052311;28;20275;-68
2023/04/29 11:25:01;;;;;;;8.93;5.13;;;17.10;71.60;;;;;;5053221;28;20561;-68
2023/04/29 11:27:32;;;;;;;4.97;4.20;;;17.20;71.70;;;;;;5061843;28;20193;-67
2023/04/29 11:30:02;;;;;;;7.63;5.50;;;17.30;71.70;;;;;;5050722;28;20202;-67
2023/04/29 11:32:31;;;;;;;5.07;4.20;;;17.30;71.70;;;;;;5053183;28;20619;-68
2023/04/29 11:35:08;;;;;;;8.27;5.23;;;17.30;71.70;;;;;;5052936;28;20544;-68
2023/04/29 11:37:35;;;;;;;6.83;4.87;;;17.30;71.80;;;;;;5051454;28;20216;-68
2023/04/29 11:40:02;;;;;;;5.47;4.43;;;17.30;71.90;;;;;;5048197;28;20293;-68
2023/04/29 11:42:34;;;;;;;6.60;4.50;;;17.30;71.90;;;;;;5050789;28;20301;-68
2023/04/29 11:45:01;;;;;;;5.50;4.07;;;17.20;71.90;;;;;;5051155;28;20198;-67
2023/04/29 11:47:29;;;;;;;3.27;3.07;;;17.20;72.00;;;;;;5059394;28;20206;-68
2023/04/29 11:50:03;;;;;;;4.67;4.20;;;17.20;71.90;;;;;;5050696;28;20589;-68
2023/04/29 11:52:31;;;;;;;8.00;3.60;;;17.20;71.90;;;;;;5057817;28;20204;-68
2023/04/29 11:54:58;;;;;;;3.33;3.03;;;17.20;71.90;;;;;;5051047;28;20302;-68
2023/04/29 11:57:26;;;;;;;5.03;3.50;;;17.10;71.90;;;;;;5056687;28;20206;-68
2023/04/29 11:59:54;;;;;;;3.30;3.00;;;17.10;72.00;;;;;;5051318;28;20372;-67
2023/04/29 12:02:22;;;;;;;2.80;2.60;;;17.20;72.00;;;;;;5052020;28;20218;-68
2023/04/29 12:04:49;;;;;;;2.10;1.90;;;17.10;71.80;;;;;;5050439;28;20238;-68
2023/04/29 12:07:17;;;;;;;3.37;2.23;;;17.10;71.70;;;;;;5052777;28;20202;-68
2023/04/29 12:09:45;;;;;;;2.00;1.90;;;17.10;71.50;;;;;;5051714;28;20232;-68
2023/04/29 12:12:14;;;;;;;2.30;2.10;;;17.10;71.30;;;;;;5050071;28;20279;-68
2023/04/29 12:14:41;;;;;;;5.03;2.40;;;17.10;71.10;;;;;;5050129;28;20229;-68
2023/04/29 12:17:10;;;;;;;3.30;2.50;;;17.20;71.00;;;;;;5051762;28;20273;-68
2023/04/29 12:19:40;;;;;;;7.37;3.23;;;17.10;70.80;;;;;;5052981;28;20193;-68
2023/04/29 12:22:07;;;;;;;3.97;3.10;;;17.10;71.00;;;;;;5058819;28;20681;-68
2023/04/29 12:24:37;;;;;;;3.33;2.93;;;17.10;71.20;;;;;;5051757;28;20479;-68
2023/04/29 12:27:04;;;;;;;4.10;3.00;;;17.10;71.20;;;;;;5052173;28;20230;-67
2023/04/29 12:29:32;;;;;;;5.17;2.70;;;17.10;71.40;;;;;;5046488;28;20619;-67
2023/04/29 12:31:59;;;;;;;4.73;3.00;;;17.10;71.50;;;;;;5058908;28;20273;-67
2023/04/29 12:34:29;;;;;;;2.80;2.60;;;17.10;71.70;;;;;;5052797;28;20246;-68
2023/04/29 12:36:58;;;;;;;3.40;3.10;;;17.10;71.80;;;;;;5050187;28;20190;-68
2023/04/29 12:39:26;;;;;;;3.10;2.77;;;17.10;71.90;;;;;;5058572;28;20213;-68
2023/04/29 12:41:56;;;;;;;3.10;2.60;;;17.10;72.00;;;;;;5050949;28;20301;-68
2023/04/29 12:44:24;;;;;;;2.53;2.30;;;17.00;71.90;;;;;;5049777;28;20684;-68
2023/04/29 12:46:52;;;;;;;3.10;2.67;;;17.00;72.10;;;;;;5051525;28;20252;-68
2023/04/29 12:49:20;;;;;;;6.17;4.37;;;17.00;72.10;;;;;;5043287;28;20568;-69
2023/04/29 12:51:48;;;;;;;5.03;3.80;;;16.90;72.50;;;;;;5051114;28;20190;-68
2023/04/29 12:54:16;;;;;;;6.17;3.90;;;16.90;72.60;;;;;;5051634;28;20666;-68
2023/04/29 12:56:43;;;;;;;7.97;3.60;;;16.90;72.80;;;;;;5049849;28;20244;-68
2023/04/29 12:59:11;;;;;;;4.20;3.80;;;16.80;72.90;;;;;;5054529;28;20202;-68
2023/04/29 13:01:39;;;;;;;6.23;4.00;;;16.80;73.10;;;;;;5051262;28;20222;-67